Adams Basin, NY

9:32 AM EDT on October 24, 2014 (GMT -0400)
Chili Backyard | Change Station
CLOSE
Current Station
Personal Weather Station
Location: Rochester, NY
Elevation: 560 ft
Nearby Weather Stations

Elev 560 ft 43.11 °N, 77.77 °W | Updated 2 minutes ago

Partly Cloudy
Partly Cloudy
44.7 °F
Feels Like 45 °F
N
2.0
Wind Variable Wind from West
Gusts 2.0 mph

Today
High -- | Low -- °F
--% Chance of Precip.
Yesterday
High -- | Low -- °F
Precip. -- in
7:36 AM 6:14 PM
New Moon, 0% visible
Pressure 30.03 in
Visibility 10.0 miles
Clouds Few 4000 ft
Scattered Clouds 18000 ft
Windchill 45 °F
Dew Point 42 °F
Humidity 92%
Rainfall 0.00 in
Snow Depth Not available.
UV 1 out of 12
Pollen 1.10 out of 12
Air Quality Not available.
Flu Activity Sporadic
METAR KROC 241254Z 27009KT 10SM FEW040 SCT180 08/06 A3001 RMK AO2 SLP169 T00780056

More Conditions Fewer Conditions

Pressure 30.03 in
Visibility 10.0 miles
Clouds Few 4000 ft
Scattered Clouds 18000 ft
Windchill 45 °F
Dew Point 42 °F
Humidity 92%
Rainfall 0.00 in
Snow Depth Not available.
UV 1 out of 12
Pollen 1.10 out of 12
Air Quality Not available.
Flu Activity Sporadic
METAR KROC 241254Z 27009KT 10SM FEW040 SCT180 08/06 A3001 RMK AO2 SLP169 T00780056

More Conditions Fewer Conditions

10-Day Weather Forecast

Almanac

Astronomy

Oct. 24, 2014 Rise Set
Actual Time 7:36 AM EDT 6:14 PM EDT
Civil Twilight 7:07 AM EDT 6:43 PM EDT
Nautical Twilight 6:33 AM EDT 7:16 PM EDT
Astronomical Twilight 6:00 AM EDT 7:49 PM EDT
Moon 8:14 AM EDT 6:51 PM EDT
Length of Visible Light 11h 36m
Length of Day
10h 38m
Tomorrow will be 2m 44s shorter.
New Moon, 0% of the Moon is Illuminated
Today
New Moon
Oct 30
First Quarter
Nov 6
Full
Nov 14
Last Quarter
Nov 22
New

Today's Extremes

State Highs State Lows

Community

WunderPhotos

Upload Photos

1,764,550 photos uploaded!

WunderBlogs® & News

Nearby

Air Quality

  Air Quality AQ Index Pollutant
Friday Good
PM2.5

Snow Depth

Station Depth Elevation
No new snow has been reported.

Earthquake Activity

City Distance Mag. Time & Date
No recent earthquake activity has been reported nearby.
Minimum magnitude displayed is 2.5.

Coastal Water Temperatures

Place Temperature
Buffalo, NY 57.0 °F
Alexandria Bay, NY 55.9 °F

Nearby Weather Stations